createdAt,value
2022-12-05T00:00:30.543Z,94646.78
2022-12-05T00:03:38.790Z,94648.13
2022-12-05T00:06:48.515Z,94647.19
2022-12-05T00:09:57.178Z,94637.31
2022-12-05T00:13:05.603Z,94648.78
2022-12-05T00:16:17.020Z,94639.44
2022-12-05T00:19:25.536Z,94656.00
2022-12-05T00:22:37.172Z,94661.66
2022-12-05T00:25:45.400Z,94671.53
2022-12-05T00:28:55.282Z,94672.59
2022-12-05T00:32:03.523Z,94674.25
2022-12-05T00:35:11.724Z,94662.81
2022-12-05T00:38:21.254Z,94670.06
2022-12-05T00:41:30.902Z,94668.06
2022-12-05T00:44:39.329Z,94671.03
2022-12-05T00:47:47.699Z,94671.03
2022-12-05T00:51:03.264Z,94668.38
2022-12-05T00:54:16.601Z,94668.47
2022-12-05T00:57:24.849Z,94669.78
2022-12-05T01:00:33.155Z,94671.66
2022-12-05T01:03:42.276Z,94676.78
2022-12-05T01:06:52.477Z,94674.00
2022-12-05T01:10:01.968Z,94687.19
2022-12-05T01:13:10.157Z,94693.38
2022-12-05T01:16:21.935Z,94693.66
2022-12-05T01:19:33.250Z,94707.06
2022-12-05T01:22:41.553Z,94709.69
2022-12-05T01:25:54.028Z,94721.16
2022-12-05T01:29:02.795Z,94734.53
2022-12-05T01:32:11.327Z,94728.91
2022-12-05T01:35:20.418Z,94723.72
2022-12-05T01:38:28.888Z,94715.16
2022-12-05T01:41:42.956Z,94716.06
2022-12-05T01:45:15.210Z,94729.84
2022-12-05T01:48:28.894Z,94743.13
2022-12-05T01:51:41.812Z,94750.97
2022-12-05T01:54:55.871Z,94757.09
2022-12-05T01:58:09.302Z,94761.91
2022-12-05T02:01:19.569Z,94766.31
2022-12-05T02:04:29.230Z,94757.13
2022-12-05T02:07:42.184Z,94748.41
2022-12-05T02:10:54.653Z,94745.00
2022-12-05T02:14:33.548Z,94763.69
2022-12-05T02:17:56.548Z,94792.19
2022-12-05T02:21:55.802Z,94800.00
2022-12-05T02:25:38.430Z,94789.84
2022-12-05T02:29:25.814Z,94786.31
2022-12-05T02:32:52.461Z,94799.28
2022-12-05T02:36:09.715Z,94797.56
2022-12-05T02:39:27.618Z,94812.78
2022-12-05T02:42:46.531Z,94814.03
2022-12-05T02:46:01.944Z,94813.75
2022-12-05T02:49:18.962Z,94808.44
2022-12-05T02:52:29.059Z,94814.53
2022-12-05T02:55:39.364Z,94827.28
2022-12-05T02:58:54.469Z,94820.06
2022-12-05T03:02:02.705Z,94813.56
2022-12-05T03:05:24.036Z,94817.31
2022-12-05T03:08:41.441Z,94820.03
2022-12-05T03:11:57.497Z,94837.03
2022-12-05T03:15:16.173Z,94858.03
2022-12-05T03:18:29.375Z,94866.75
2022-12-05T03:21:46.707Z,94871.19
2022-12-05T03:24:55.872Z,94872.59
2022-12-05T03:28:12.284Z,94878.03
2022-12-05T03:31:32.507Z,94872.09
2022-12-05T03:34:54.308Z,94878.13
2022-12-05T03:38:12.209Z,94886.00
2022-12-05T03:41:32.200Z,94879.63
2022-12-05T03:44:51.629Z,94885.78
2022-12-05T03:48:12.159Z,94890.34
2022-12-05T03:51:26.563Z,94872.97
2022-12-05T03:54:41.880Z,94880.16
2022-12-05T03:57:59.357Z,94892.28
2022-12-05T04:01:11.696Z,94898.31
2022-12-05T04:04:29.552Z,94880.16
2022-12-05T04:07:41.155Z,94891.69
2022-12-05T04:10:57.162Z,94901.22
2022-12-05T04:14:12.207Z,94904.91
2022-12-05T04:17:36.221Z,94907.25
2022-12-05T04:21:03.844Z,94915.19
2022-12-05T04:24:35.361Z,94928.59
2022-12-05T04:27:55.471Z,94926.13
2022-12-05T04:31:11.991Z,94924.78
2022-12-05T04:34:23.567Z,94909.19
2022-12-05T04:37:40.616Z,94917.75
2022-12-05T04:40:57.177Z,94912.63
2022-12-05T04:44:12.621Z,94917.75
2022-12-05T04:47:25.773Z,94894.41
2022-12-05T04:50:37.950Z,94897.03
2022-12-05T04:53:50.911Z,94902.78
2022-12-05T04:57:11.690Z,94901.44
2022-12-05T05:00:21.996Z,94910.94
2022-12-05T05:03:39.572Z,94924.06
2022-12-05T05:06:48.799Z,94922.06
2022-12-05T05:09:58.736Z,94923.19
2022-12-05T05:13:07.728Z,94940.31
2022-12-05T05:16:21.776Z,94935.38
2022-12-05T05:19:30.877Z,94934.63
2022-12-05T05:22:40.372Z,94939.06
2022-12-05T05:25:55.175Z,94927.44
2022-12-05T05:29:05.096Z,94936.97
2022-12-05T05:32:15.946Z,94929.31
2022-12-05T05:35:27.930Z,94933.59
2022-12-05T05:38:39.161Z,94938.78
2022-12-05T05:41:48.252Z,94934.25
2022-12-05T05:44:56.522Z,94934.19
2022-12-05T05:48:07.098Z,94925.31
2022-12-05T05:51:18.281Z,94916.19
2022-12-05T05:54:27.352Z,94925.19
2022-12-05T05:57:36.681Z,94936.88
2022-12-05T06:00:45.124Z,94948.75
2022-12-05T06:03:55.546Z,94950.69
2022-12-05T06:07:03.834Z,94954.75
2022-12-05T06:10:12.423Z,94954.28
2022-12-05T06:13:20.981Z,94952.34
2022-12-05T06:16:30.348Z,94960.22
2022-12-05T06:19:40.844Z,94971.84
2022-12-05T06:22:49.849Z,94971.09
2022-12-05T06:25:58.398Z,94971.09
2022-12-05T06:29:06.996Z,94963.91
2022-12-05T06:32:15.362Z,94967.66
2022-12-05T06:35:25.065Z,94978.09
2022-12-05T06:38:35.981Z,94977.03
2022-12-05T06:41:49.577Z,94968.03
2022-12-05T06:44:59.181Z,94986.22
2022-12-05T06:48:09.165Z,94981.53
2022-12-05T06:51:19.510Z,94981.94
2022-12-05T06:54:28.403Z,94978.22
2022-12-05T06:57:36.996Z,94981.84
2022-12-05T07:01:03.105Z,94992.44
2022-12-05T07:04:17.274Z,94992.03
2022-12-05T07:07:27.088Z,94998.44
2022-12-05T07:10:35.730Z,94999.78
2022-12-05T07:13:44.081Z,95001.75
2022-12-05T07:16:52.285Z,95007.47
2022-12-05T07:20:01.001Z,95011.13
2022-12-05T07:23:11.949Z,95013.97
2022-12-05T07:26:22.890Z,95018.34
2022-12-05T07:29:31.403Z,95022.22
2022-12-05T07:32:39.771Z,95031.34
2022-12-05T07:35:48.116Z,95026.38
2022-12-05T07:38:59.664Z,95031.34
2022-12-05T07:42:07.977Z,95023.66
2022-12-05T07:45:16.497Z,95021.53
2022-12-05T07:48:24.693Z,95026.78
2022-12-05T07:51:33.528Z,95035.06
2022-12-05T07:54:43.038Z,95041.03
2022-12-05T07:57:51.271Z,95052.00
2022-12-05T08:01:07.406Z,95068.16
2022-12-05T08:04:16.171Z,95063.28
2022-12-05T08:07:24.631Z,95055.94
2022-12-05T08:10:36.139Z,95061.81
2022-12-05T08:13:44.736Z,95060.75
2022-12-05T08:16:52.971Z,95055.09
2022-12-05T08:20:01.231Z,95054.03
2022-12-05T08:23:09.485Z,95069.41
2022-12-05T08:26:22.364Z,95072.03
2022-12-05T08:29:30.650Z,95067.56
2022-12-05T08:32:38.953Z,95079.41
2022-12-05T08:35:47.203Z,95078.88
2022-12-05T08:38:58.916Z,95086.75
2022-12-05T08:42:08.682Z,95082.13
2022-12-05T08:45:17.047Z,95081.06
2022-12-05T08:48:29.470Z,95091.81
2022-12-05T08:51:38.220Z,95093.72
2022-12-05T08:54:46.602Z,95089.94
2022-12-05T08:57:56.345Z,95093.38
2022-12-05T09:01:07.467Z,95092.63
2022-12-05T09:04:18.038Z,95089.94
2022-12-05T09:07:31.057Z,95094.00
2022-12-05T09:10:39.726Z,95099.50
2022-12-05T09:13:50.280Z,95085.19
2022-12-05T09:16:59.430Z,95097.56
2022-12-05T09:20:13.608Z,95092.69
2022-12-05T09:23:23.089Z,95092.25
2022-12-05T09:26:33.229Z,95097.72
2022-12-05T09:29:44.565Z,95091.19
2022-12-05T09:32:54.493Z,95099.13
2022-12-05T09:36:07.201Z,95101.41
2022-12-05T09:39:16.517Z,95108.06
2022-12-05T09:42:44.920Z,95108.88
2022-12-05T09:49:54.450Z,95115.56
2022-12-05T09:53:11.699Z,95112.34
2022-12-05T09:56:28.734Z,95124.09
2022-12-05T09:59:37.387Z,95117.34
2022-12-05T10:02:58.867Z,95120.00
2022-12-05T10:06:16.765Z,95120.34
2022-12-05T10:09:48.421Z,95123.19
2022-12-05T10:13:22.671Z,95125.34
2022-12-05T10:16:38.487Z,95119.75
2022-12-05T10:19:57.230Z,95121.59
2022-12-05T10:23:41.215Z,95119.78
2022-12-05T10:26:51.470Z,95115.13
2022-12-05T10:30:06.509Z,95122.44
2022-12-05T10:33:22.817Z,95124.19
2022-12-05T10:36:33.685Z,95118.03
2022-12-05T10:39:45.164Z,95130.94
2022-12-05T10:42:54.541Z,95116.19
2022-12-05T10:46:07.421Z,95118.81
2022-12-05T10:49:16.811Z,95121.03
2022-12-05T10:52:25.481Z,95110.25
2022-12-05T10:55:54.763Z,95117.09
2022-12-05T10:59:13.095Z,95107.50
2022-12-05T11:02:28.438Z,95107.09
2022-12-05T11:05:38.266Z,95109.13
2022-12-05T11:09:04.433Z,95106.41
2022-12-05T11:12:23.205Z,95108.78
2022-12-05T11:15:32.992Z,95101.41
2022-12-05T11:18:41.934Z,95096.66
2022-12-05T11:21:51.226Z,95093.16
2022-12-05T11:24:59.815Z,95098.50
2022-12-05T11:28:37.255Z,95096.81
2022-12-05T11:31:53.120Z,95103.50
2022-12-05T11:35:24.227Z,95105.44
2022-12-05T11:38:34.799Z,95099.66
2022-12-05T11:42:20.900Z,95097.13
2022-12-05T11:45:50.867Z,95098.63
2022-12-05T11:49:20.467Z,95095.53
2022-12-05T11:52:48.632Z,95092.94
2022-12-05T11:56:10.190Z,95099.66
2022-12-05T11:59:54.617Z,95087.50
2022-12-05T12:03:34.242Z,95079.25
2022-12-05T12:07:04.113Z,95088.94
2022-12-05T12:10:25.845Z,95086.97
2022-12-05T12:13:54.723Z,95088.41
2022-12-05T12:17:22.277Z,95087.44
2022-12-05T12:20:50.317Z,95090.91
2022-12-05T12:24:12.581Z,95094.56
2022-12-05T12:27:40.550Z,95084.69
2022-12-05T12:31:08.055Z,95084.84
2022-12-05T12:34:50.875Z,95091.63
2022-12-05T12:38:51.099Z,95088.16
2022-12-05T12:42:24.974Z,95076.06
2022-12-05T12:45:58.021Z,95082.00
2022-12-05T12:49:28.100Z,95071.13
2022-12-05T12:53:02.150Z,95071.97
2022-12-05T12:56:30.208Z,95071.16
2022-12-05T13:00:01.085Z,95071.34
2022-12-05T13:03:18.227Z,95079.41
2022-12-05T13:06:39.775Z,95082.88
2022-12-05T13:09:59.200Z,95078.75
2022-12-05T13:13:14.924Z,95078.44
2022-12-05T13:16:30.109Z,95081.22
2022-12-05T13:19:44.462Z,95076.78
2022-12-05T13:22:55.134Z,95072.47
2022-12-05T13:26:11.946Z,95070.19
2022-12-05T13:29:32.789Z,95075.63
2022-12-05T13:32:43.617Z,95075.09
2022-12-05T13:36:17.496Z,95075.09
2022-12-05T13:39:44.311Z,95066.06
2022-12-05T13:43:03.476Z,95076.44
2022-12-05T13:46:24.374Z,95084.34
2022-12-05T13:49:44.625Z,95077.09
2022-12-05T13:52:57.740Z,95080.03
2022-12-05T13:56:24.458Z,95092.06
2022-12-05T14:00:07.391Z,95092.88
2022-12-05T14:03:59.047Z,95084.13
2022-12-05T14:07:11.462Z,95082.63
2022-12-05T14:10:44.499Z,95082.63
2022-12-05T14:13:53.934Z,95080.84
2022-12-05T14:17:05.094Z,95106.72
2022-12-05T14:20:30.002Z,95089.25
2022-12-05T14:24:03.680Z,95092.69
2022-12-05T14:27:27.187Z,95087.22
2022-12-05T14:30:53.300Z,95094.94
2022-12-05T14:34:15.078Z,95096.06
2022-12-05T14:37:31.335Z,95092.63
2022-12-05T14:40:44.252Z,95096.41
2022-12-05T14:43:56.659Z,95099.88
2022-12-05T14:47:08.198Z,95106.25
2022-12-05T14:50:47.115Z,95095.69
2022-12-05T14:53:58.421Z,95091.88
2022-12-05T14:57:16.371Z,95095.63
2022-12-05T15:00:24.965Z,95094.13
2022-12-05T15:03:38.936Z,95090.19
2022-12-05T15:06:53.912Z,95078.94
2022-12-05T15:10:09.146Z,95082.97
2022-12-05T15:13:22.975Z,95087.56
2022-12-05T15:16:37.258Z,95090.31
2022-12-05T15:19:56.732Z,95096.19
2022-12-05T15:23:06.325Z,95101.13
2022-12-05T15:26:45.986Z,95096.06
2022-12-05T15:29:56.633Z,95095.66
2022-12-05T15:33:06.082Z,95109.31
2022-12-05T15:36:14.756Z,95103.50
2022-12-05T15:39:27.712Z,95101.09
2022-12-05T15:42:44.311Z,95102.59
2022-12-05T15:46:07.483Z,95097.84
2022-12-05T15:49:26.018Z,95110.50
2022-12-05T15:52:41.914Z,95110.94
2022-12-05T15:55:56.009Z,95122.94
2022-12-05T15:59:15.332Z,95115.91
2022-12-05T16:02:34.234Z,95125.56
2022-12-05T16:05:53.608Z,95116.84
2022-12-05T16:09:11.316Z,95130.97
2022-12-05T16:12:34.188Z,95132.97
2022-12-05T16:15:52.986Z,95141.50
2022-12-05T16:19:08.038Z,95146.63
2022-12-05T16:22:25.708Z,95143.84
2022-12-05T16:25:36.909Z,95148.50
2022-12-05T16:28:59.767Z,95148.13
2022-12-05T16:32:26.616Z,95142.56
2022-12-05T16:35:41.443Z,95138.97
2022-12-05T16:38:50.031Z,95129.47
2022-12-05T16:41:58.696Z,95135.28
2022-12-05T16:45:38.891Z,95138.88
2022-12-05T16:49:17.529Z,95136.03
2022-12-05T16:52:32.447Z,95149.06
2022-12-05T16:55:43.017Z,95156.22
2022-12-05T16:58:51.703Z,95164.06
2022-12-05T17:02:01.945Z,95164.75
2022-12-05T17:05:17.076Z,95156.47
2022-12-05T17:08:26.541Z,95165.78
2022-12-05T17:11:39.259Z,95164.75
2022-12-05T17:14:47.800Z,95167.00
2022-12-05T17:17:56.645Z,95167.09
2022-12-05T17:21:07.504Z,95172.66
2022-12-05T17:24:19.088Z,95167.63
2022-12-05T17:27:28.794Z,95172.19
2022-12-05T17:30:37.977Z,95170.47
2022-12-05T17:33:46.977Z,95168.56
2022-12-05T17:36:56.706Z,95174.94
2022-12-05T17:40:05.931Z,95187.72
2022-12-05T17:43:17.611Z,95189.16
2022-12-05T17:46:29.920Z,95187.16
2022-12-05T17:49:38.231Z,95192.31
2022-12-05T17:52:47.927Z,95187.28
2022-12-05T17:55:56.599Z,95186.34
2022-12-05T17:59:07.433Z,95196.09
2022-12-05T18:02:17.355Z,95197.44
2022-12-05T18:05:26.166Z,95188.16
2022-12-05T18:08:39.578Z,95192.91
2022-12-05T18:11:47.826Z,95185.16
2022-12-05T18:14:56.382Z,95177.69
2022-12-05T18:18:07.156Z,95190.97
2022-12-05T18:21:15.584Z,95194.44
2022-12-05T18:24:25.200Z,95183.94
2022-12-05T18:27:35.610Z,95186.97
2022-12-05T18:30:44.018Z,95181.31
2022-12-05T18:33:52.704Z,95175.88
2022-12-05T18:37:01.780Z,95170.78
2022-12-05T18:40:13.914Z,95169.13
2022-12-05T18:43:24.184Z,95169.38
2022-12-05T18:46:32.535Z,95164.56
2022-12-05T18:49:40.988Z,95166.78
2022-12-05T18:52:50.018Z,95170.38
2022-12-05T18:56:21.564Z,95182.25
2022-12-05T18:59:31.576Z,95188.91
2022-12-05T19:02:40.175Z,95196.34
2022-12-05T19:05:49.944Z,95202.97
2022-12-05T19:09:00.504Z,95196.03
2022-12-05T19:12:10.617Z,95189.66
2022-12-05T19:15:18.926Z,95194.66
2022-12-05T19:18:27.296Z,95203.97
2022-12-05T19:21:37.951Z,95209.59
2022-12-05T19:24:46.632Z,95203.97
2022-12-05T19:27:56.438Z,95198.81
2022-12-05T19:31:07.951Z,95184.25
2022-12-05T19:34:16.368Z,95178.41
2022-12-05T19:37:24.746Z,95183.28
2022-12-05T19:40:33.032Z,95179.94
2022-12-05T19:43:44.830Z,95177.59
2022-12-05T19:46:54.933Z,95175.72
2022-12-05T19:50:03.275Z,95173.63
2022-12-05T19:53:12.338Z,95166.56
2022-12-05T19:56:23.252Z,95167.31
2022-12-05T19:59:32.855Z,95168.53
2022-12-05T20:02:43.760Z,95169.81
2022-12-05T20:06:01.010Z,95176.59
2022-12-05T20:09:11.702Z,95172.03
2022-12-05T20:12:20.384Z,95171.97
2022-12-05T20:15:31.005Z,95174.91
2022-12-05T20:18:43.730Z,95178.78
2022-12-05T20:21:52.444Z,95170.22
2022-12-05T20:25:01.091Z,95172.69
2022-12-05T20:28:10.315Z,95181.03
2022-12-05T20:31:23.934Z,95169.09
2022-12-05T20:34:33.296Z,95171.59
2022-12-05T20:37:43.474Z,95167.72
2022-12-05T20:40:52.654Z,95166.50
2022-12-05T20:44:04.391Z,95163.47
2022-12-05T20:47:14.927Z,95161.53
2022-12-05T20:50:25.274Z,95162.28
2022-12-05T20:53:36.915Z,95157.31
2022-12-05T20:56:46.174Z,95159.75
2022-12-05T20:59:55.050Z,95142.84
2022-12-05T21:03:05.806Z,95144.47
2022-12-05T21:06:17.095Z,95152.97
2022-12-05T21:09:30.009Z,95147.91
2022-12-05T21:12:39.790Z,95148.59
2022-12-05T21:15:48.487Z,95153.16
2022-12-05T21:19:01.244Z,95151.47
2022-12-05T21:22:09.654Z,95149.06
2022-12-05T21:25:19.019Z,95160.09
2022-12-05T21:28:27.243Z,95157.03
2022-12-05T21:31:38.824Z,95153.63
2022-12-05T21:34:49.607Z,95148.47
2022-12-05T21:37:58.253Z,95145.84
2022-12-05T21:41:07.366Z,95150.63
2022-12-05T21:44:16.641Z,95147.31
2022-12-05T21:47:24.952Z,95156.63
2022-12-05T21:50:34.798Z,95163.66
2022-12-05T21:53:43.867Z,95173.75
2022-12-05T21:56:52.176Z,95161.84
2022-12-05T22:00:03.143Z,95160.13
2022-12-05T22:03:16.498Z,95166.91
2022-12-05T22:06:26.695Z,95163.22
2022-12-05T22:09:35.871Z,95172.34
2022-12-05T22:12:44.407Z,95174.84
2022-12-05T22:15:53.114Z,95179.22
2022-12-05T22:19:01.735Z,95180.56
2022-12-05T22:22:11.348Z,95171.88
2022-12-05T22:25:19.750Z,95175.00
2022-12-05T22:28:28.820Z,95171.81
2022-12-05T22:31:37.102Z,95170.84
2022-12-05T22:34:45.416Z,95168.59
2022-12-05T22:37:55.407Z,95170.84
2022-12-05T22:41:06.622Z,95176.66
2022-12-05T22:44:14.925Z,95166.59
2022-12-05T22:47:23.223Z,95171.91
2022-12-05T22:50:31.730Z,95161.31
2022-12-05T22:53:41.628Z,95154.75
2022-12-05T22:56:49.854Z,95151.81
2022-12-05T22:59:58.457Z,95160.38
2022-12-05T23:03:07.502Z,95155.41
2022-12-05T23:06:19.184Z,95154.44
2022-12-05T23:09:28.995Z,95155.91
2022-12-05T23:12:37.426Z,95156.22
2022-12-05T23:15:46.117Z,95152.19
2022-12-05T23:18:56.706Z,95162.53
2022-12-05T23:22:06.471Z,95150.91
2022-12-05T23:25:16.388Z,95146.91
2022-12-05T23:28:24.907Z,95149.97
2022-12-05T23:31:34.037Z,95147.53
2022-12-05T23:34:43.168Z,95144.25
2022-12-05T23:37:52.001Z,95136.06
2022-12-05T23:41:05.143Z,95134.16
2022-12-05T23:44:13.884Z,95134.28
2022-12-05T23:47:22.476Z,95133.28
2022-12-05T23:50:30.913Z,95128.94
2022-12-05T23:53:42.917Z,95137.16
2022-12-05T23:56:55.126Z,95134.88
